sensor_id;sensor_type;location;lat;lon;timestamp;pressure;altitude;pressure_sealevel;temperature
40047;BMP280;31510;48.122;11.576;2023-03-01T00:01:30;96172.78;;;1.41
40047;BMP280;31510;48.122;11.576;2023-03-01T00:03:56;96174.28;;;1.45
40047;BMP280;31510;48.122;11.576;2023-03-01T00:06:22;96171.31;;;1.47
40047;BMP280;31510;48.122;11.576;2023-03-01T00:08:48;96168.31;;;1.48
40047;BMP280;31510;48.122;11.576;2023-03-01T00:11:20;96171.31;;;1.47
40047;BMP280;31510;48.122;11.576;2023-03-01T00:13:48;96172.81;;;1.48
40047;BMP280;31510;48.122;11.576;2023-03-01T00:18:49;96163.81;;;1.52
40047;BMP280;31510;48.122;11.576;2023-03-01T00:21:15;96161.91;;;1.49
40047;BMP280;31510;48.122;11.576;2023-03-01T00:23:41;96157.78;;;1.48
40047;BMP280;31510;48.122;11.576;2023-03-01T00:26:09;96164.94;;;1.48
40047;BMP280;31510;48.122;11.576;2023-03-01T00:28:36;96166.41;;;1.49
40047;BMP280;31510;48.122;11.576;2023-03-01T00:31:09;96164.97;;;1.55
40047;BMP280;31510;48.122;11.576;2023-03-01T00:33:35;96163.09;;;1.58
40047;BMP280;31510;48.122;11.576;2023-03-01T00:36:01;96161.59;;;1.61
40047;BMP280;31510;48.122;11.576;2023-03-01T00:38:27;96158.59;;;1.59
40047;BMP280;31510;48.122;11.576;2023-03-01T00:40:52;96152.59;;;1.62
40047;BMP280;31510;48.122;11.576;2023-03-01T00:43:18;96160.50;;;1.65
40047;BMP280;31510;48.122;11.576;2023-03-01T00:45:44;96154.47;;;1.68
40047;BMP280;31510;48.122;11.576;2023-03-01T00:48:10;96150.72;;;1.62
40047;BMP280;31510;48.122;11.576;2023-03-01T00:50:35;96153.34;;;1.59
40047;BMP280;31510;48.122;11.576;2023-03-01T00:53:00;96147.34;;;1.62
40047;BMP280;31510;48.122;11.576;2023-03-01T00:55:26;96144.69;;;1.58
40047;BMP280;31510;48.122;11.576;2023-03-01T00:57:51;96143.53;;;1.56
40047;BMP280;31510;48.122;11.576;2023-03-01T01:00:17;96139.78;;;1.54
40047;BMP280;31510;48.122;11.576;2023-03-01T01:02:43;96134.84;;;1.42
40047;BMP280;31510;48.122;11.576;2023-03-01T01:05:08;96131.84;;;1.40
40047;BMP280;31510;48.122;11.576;2023-03-01T01:07:34;96125.50;;;1.44
40047;BMP280;31510;48.122;11.576;2023-03-01T01:09:59;96131.84;;;1.43
40047;BMP280;31510;48.122;11.576;2023-03-01T01:12:25;96126.22;;;1.41
40047;BMP280;31510;48.122;11.576;2023-03-01T01:14:50;96121.69;;;1.35
40047;BMP280;31510;48.122;11.576;2023-03-01T01:17:15;96116.06;;;1.36
40047;BMP280;31510;48.122;11.576;2023-03-01T01:19:40;96118.72;;;1.43
40047;BMP280;31510;48.122;11.576;2023-03-01T01:22:06;96115.75;;;1.48
40047;BMP280;31510;48.122;11.576;2023-03-01T01:24:31;96098.84;;;1.49
40047;BMP280;31510;48.122;11.576;2023-03-01T01:26:56;96107.84;;;1.45
40047;BMP280;31510;48.122;11.576;2023-03-01T01:29:22;96105.94;;;1.38
40047;BMP280;31510;48.122;11.576;2023-03-01T01:31:47;96100.63;;;1.28
40047;BMP280;31510;48.122;11.576;2023-03-01T01:34:15;96099.50;;;1.25
40047;BMP280;31510;48.122;11.576;2023-03-01T01:36:41;96101.03;;;1.26
40047;BMP280;31510;48.122;11.576;2023-03-01T01:39:06;96098.41;;;1.26
40047;BMP280;31510;48.122;11.576;2023-03-01T01:41:32;96102.50;;;1.27
40047;BMP280;31510;48.122;11.576;2023-03-01T01:44:28;96094.66;;;1.31
40047;BMP280;31510;48.122;11.576;2023-03-01T01:47:16;96092.78;;;1.35
40047;BMP280;31510;48.122;11.576;2023-03-01T01:49:51;96091.66;;;1.36
40047;BMP280;31510;48.122;11.576;2023-03-01T01:52:29;96079.66;;;1.38
40047;BMP280;31510;48.122;11.576;2023-03-01T01:57:58;96082.66;;;1.40
40047;BMP280;31510;48.122;11.576;2023-03-01T02:00:27;96077.41;;;1.40
40047;BMP280;31510;48.122;11.576;2023-03-01T02:03:26;96068.41;;;1.41
40047;BMP280;31510;48.122;11.576;2023-03-01T02:05:58;96061.28;;;1.42
40047;BMP280;31510;48.122;11.576;2023-03-01T02:08:28;96069.94;;;1.42
40047;BMP280;31510;48.122;11.576;2023-03-01T02:10:58;96072.56;;;1.42
40047;BMP280;31510;48.122;11.576;2023-03-01T02:13:25;96074.41;;;1.38
40047;BMP280;31510;48.122;11.576;2023-03-01T02:15:50;96060.53;;;1.38
40047;BMP280;31510;48.122;11.576;2023-03-01T02:18:18;96064.66;;;1.39
40047;BMP280;31510;48.122;11.576;2023-03-01T02:21:05;96059.75;;;1.34
40047;BMP280;31510;48.122;11.576;2023-03-01T02:23:34;96059.38;;;1.32
40047;BMP280;31510;48.122;11.576;2023-03-01T02:26:08;96060.13;;;1.32
40047;BMP280;31510;48.122;11.576;2023-03-01T02:28:38;96060.88;;;1.33
40047;BMP280;31510;48.122;11.576;2023-03-01T02:31:07;96058.22;;;1.29
40047;BMP280;31510;48.122;11.576;2023-03-01T02:33:52;96060.13;;;1.29
40047;BMP280;31510;48.122;11.576;2023-03-01T02:36:24;96046.59;;;1.27
40047;BMP280;31510;48.122;11.576;2023-03-01T02:38:53;96054.84;;;1.29
40047;BMP280;31510;48.122;11.576;2023-03-01T02:41:20;96049.59;;;1.25
40047;BMP280;31510;48.122;11.576;2023-03-01T02:43:46;96055.22;;;1.24
40047;BMP280;31510;48.122;11.576;2023-03-01T02:46:18;96054.06;;;1.18
40047;BMP280;31510;48.122;11.576;2023-03-01T02:48:48;96047.69;;;1.22
40047;BMP280;31510;48.122;11.576;2023-03-01T02:54:03;96054.13;;;1.28
40047;BMP280;31510;48.122;11.576;2023-03-01T02:56:31;96041.69;;;1.22
40047;BMP280;31510;48.122;11.576;2023-03-01T02:58:57;96046.56;;;1.17
40047;BMP280;31510;48.122;11.576;2023-03-01T03:01:25;96041.66;;;1.12
40047;BMP280;31510;48.122;11.576;2023-03-01T03:04:01;96030.75;;;1.06
40047;BMP280;31510;48.122;11.576;2023-03-01T03:06:26;96043.88;;;1.03
40047;BMP280;31510;48.122;11.576;2023-03-01T03:08:51;96045.41;;;1.07
40047;BMP280;31510;48.122;11.576;2023-03-01T03:11:17;96060.78;;;1.12
40047;BMP280;31510;48.122;11.576;2023-03-01T03:13:42;96050.31;;;1.19
40047;BMP280;31510;48.122;11.576;2023-03-01T03:16:12;96051.09;;;1.23
40047;BMP280;31510;48.122;11.576;2023-03-01T03:18:38;96050.69;;;1.21
40047;BMP280;31510;48.122;11.576;2023-03-01T03:21:07;96045.44;;;1.21
40047;BMP280;31510;48.122;11.576;2023-03-01T03:23:35;96050.34;;;1.26
40047;BMP280;31510;48.122;11.576;2023-03-01T03:26:01;96042.06;;;1.20
40047;BMP280;31510;48.122;11.576;2023-03-01T03:28:32;96040.56;;;1.16
40047;BMP280;31510;48.122;11.576;2023-03-01T03:30:57;96037.16;;;1.16
40047;BMP280;31510;48.122;11.576;2023-03-01T03:33:23;96043.53;;;1.15
40047;BMP280;31510;48.122;11.576;2023-03-01T03:35:49;96039.03;;;1.12
40047;BMP280;31510;48.122;11.576;2023-03-01T03:38:18;96034.50;;;1.09
40047;BMP280;31510;48.122;11.576;2023-03-01T03:43:16;96040.13;;;1.04
40047;BMP280;31510;48.122;11.576;2023-03-01T03:45:44;96030.00;;;1.06
40047;BMP280;31510;48.122;11.576;2023-03-01T03:48:09;96028.88;;;1.07
40047;BMP280;31510;48.122;11.576;2023-03-01T03:50:35;96028.13;;;1.10
40047;BMP280;31510;48.122;11.576;2023-03-01T03:53:02;96031.50;;;1.10
40047;BMP280;31510;48.122;11.576;2023-03-01T03:55:28;96028.47;;;1.05
40047;BMP280;31510;48.122;11.576;2023-03-01T03:57:57;96021.69;;;0.93
40047;BMP280;31510;48.122;11.576;2023-03-01T04:00:26;96030.69;;;0.92
40047;BMP280;31510;48.122;11.576;2023-03-01T04:02:52;96014.56;;;0.94
40047;BMP280;31510;48.122;11.576;2023-03-01T04:05:21;96019.44;;;0.95
40047;BMP280;31510;48.122;11.576;2023-03-01T04:07:47;96007.06;;;0.92
40047;BMP280;31510;48.122;11.576;2023-03-01T04:10:15;96007.78;;;0.89
40047;BMP280;31510;48.122;11.576;2023-03-01T04:12:41;96010.81;;;0.91
40047;BMP280;31510;48.122;11.576;2023-03-01T04:15:09;96014.94;;;0.92
40047;BMP280;31510;48.122;11.576;2023-03-01T04:17:46;96017.88;;;0.84
40047;BMP280;31510;48.122;11.576;2023-03-01T04:20:16;96009.59;;;0.78
40047;BMP280;31510;48.122;11.576;2023-03-01T04:23:12;96016.75;;;0.78
40047;BMP280;31510;48.122;11.576;2023-03-01T04:25:53;96020.84;;;0.72
40047;BMP280;31510;48.122;11.576;2023-03-01T04:28:23;96009.19;;;0.70
40047;BMP280;31510;48.122;11.576;2023-03-01T04:30:57;96011.09;;;0.73
40047;BMP280;31510;48.122;11.576;2023-03-01T04:33:23;96019.69;;;0.70
40047;BMP280;31510;48.122;11.576;2023-03-01T04:35:49;96013.69;;;0.69
40047;BMP280;31510;48.122;11.576;2023-03-01T04:38:15;96013.31;;;0.67
40047;BMP280;31510;48.122;11.576;2023-03-01T04:40:41;96017.41;;;0.65
40047;BMP280;31510;48.122;11.576;2023-03-01T04:43:09;96011.03;;;0.66
40047;BMP280;31510;48.122;11.576;2023-03-01T04:45:34;96011.06;;;0.69
40047;BMP280;31510;48.122;11.576;2023-03-01T04:48:00;96006.59;;;0.73
40047;BMP280;31510;48.122;11.576;2023-03-01T04:50:26;96009.97;;;0.77
40047;BMP280;31510;48.122;11.576;2023-03-01T04:52:51;96012.97;;;0.72
40047;BMP280;31510;48.122;11.576;2023-03-01T04:55:17;96004.31;;;0.72
40047;BMP280;31510;48.122;11.576;2023-03-01T04:57:42;96000.22;;;0.71
40047;BMP280;31510;48.122;11.576;2023-03-01T05:00:10;96005.06;;;0.69
40047;BMP280;31510;48.122;11.576;2023-03-01T05:02:56;96002.75;;;0.57
40047;BMP280;31510;48.122;11.576;2023-03-01T05:05:34;96002.66;;;0.43
40047;BMP280;31510;48.122;11.576;2023-03-01T05:08:05;95998.91;;;0.37
40047;BMP280;31510;48.122;11.576;2023-03-01T05:10:32;96000.38;;;0.38
40047;BMP280;31510;48.122;11.576;2023-03-01T05:13:00;96003.38;;;0.40
40047;BMP280;31510;48.122;11.576;2023-03-01T05:15:26;96001.97;;;0.49
40047;BMP280;31510;48.122;11.576;2023-03-01T05:17:53;96006.84;;;0.47
40047;BMP280;31510;48.122;11.576;2023-03-01T05:20:19;95997.81;;;0.48
40047;BMP280;31510;48.122;11.576;2023-03-01T05:22:48;95994.84;;;0.50
40047;BMP280;31510;48.122;11.576;2023-03-01T05:25:13;95998.56;;;0.49
40047;BMP280;31510;48.122;11.576;2023-03-01T05:27:39;95995.53;;;0.40
40047;BMP280;31510;48.122;11.576;2023-03-01T05:30:05;95992.81;;;0.30
40047;BMP280;31510;48.122;11.576;2023-03-01T05:32:42;95993.53;;;0.20
40047;BMP280;31510;48.122;11.576;2023-03-01T05:35:09;95992.34;;;0.14
40047;BMP280;31510;48.122;11.576;2023-03-01T05:37:42;95997.19;;;0.12
40047;BMP280;31510;48.122;11.576;2023-03-01T05:40:09;95996.03;;;0.06
40047;BMP280;31510;48.122;11.576;2023-03-01T05:42:41;95992.25;;;0.03
40047;BMP280;31510;48.122;11.576;2023-03-01T05:45:08;95986.28;;;0.03
40047;BMP280;31510;48.122;11.576;2023-03-01T05:47:34;95983.63;;;-0.01
40047;BMP280;31510;48.122;11.576;2023-03-01T05:50:00;95983.25;;;0.01
40047;BMP280;31510;48.122;11.576;2023-03-01T05:52:26;95985.91;;;0.04
40047;BMP280;31510;48.122;11.576;2023-03-01T05:54:51;95982.56;;;0.07
40047;BMP280;31510;48.122;11.576;2023-03-01T05:57:16;95981.81;;;0.10
40047;BMP280;31510;48.122;11.576;2023-03-01T05:59:42;95983.34;;;0.11
40047;BMP280;31510;48.122;11.576;2023-03-01T06:02:07;95984.44;;;0.10
40047;BMP280;31510;48.122;11.576;2023-03-01T06:04:32;95986.69;;;0.08
40047;BMP280;31510;48.122;11.576;2023-03-01T06:06:57;95990.47;;;0.11
40047;BMP280;31510;48.122;11.576;2023-03-01T06:09:23;95990.84;;;0.13
40047;BMP280;31510;48.122;11.576;2023-03-01T06:11:48;95993.53;;;0.20
40047;BMP280;31510;48.122;11.576;2023-03-01T06:14:13;96003.69;;;0.25
40047;BMP280;31510;48.122;11.576;2023-03-01T06:16:40;96001.72;;;0.15
40047;BMP280;31510;48.122;11.576;2023-03-01T06:19:05;95995.38;;;0.19
40047;BMP280;31510;48.122;11.576;2023-03-01T06:21:30;96002.53;;;0.22
40047;BMP280;31510;48.122;11.576;2023-03-01T06:23:55;95996.91;;;0.20
40047;BMP280;31510;48.122;11.576;2023-03-01T06:26:21;95999.50;;;0.17
40047;BMP280;31510;48.122;11.576;2023-03-01T06:28:46;96003.25;;;0.16
40047;BMP280;31510;48.122;11.576;2023-03-01T06:31:11;96002.13;;;0.20
40047;BMP280;31510;48.122;11.576;2023-03-01T06:33:37;95999.81;;;0.12
40047;BMP280;31510;48.122;11.576;2023-03-01T06:36:03;96009.88;;;0.03
40047;BMP280;31510;48.122;11.576;2023-03-01T06:38:28;96003.84;;;-0.01
40047;BMP280;31510;48.122;11.576;2023-03-01T06:40:54;96015.84;;;-0.03
40047;BMP280;31510;48.122;11.576;2023-03-01T06:43:21;96006.16;;;0.04
40047;BMP280;31510;48.122;11.576;2023-03-01T06:45:46;95999.06;;;0.08
40047;BMP280;31510;48.122;11.576;2023-03-01T06:48:12;96007.22;;;-0.01
40047;BMP280;31510;48.122;11.576;2023-03-01T06:50:37;96015.03;;;-0.07
40047;BMP280;31510;48.122;11.576;2023-03-01T06:53:02;96006.81;;;-0.06
40047;BMP280;31510;48.122;11.576;2023-03-01T06:55:28;96000.09;;;-0.03
40047;BMP280;31510;48.122;11.576;2023-03-01T06:57:55;96010.66;;;0.07
40047;BMP280;31510;48.122;11.576;2023-03-01T07:00:21;96003.63;;;0.18
40047;BMP280;31510;48.122;11.576;2023-03-01T07:02:47;95999.16;;;0.22
40047;BMP280;31510;48.122;11.576;2023-03-01T07:05:12;96007.75;;;0.19
40047;BMP280;31510;48.122;11.576;2023-03-01T07:07:37;96010.75;;;0.21
40047;BMP280;31510;48.122;11.576;2023-03-01T07:10:03;96007.00;;;0.18
40047;BMP280;31510;48.122;11.576;2023-03-01T07:12:28;95999.50;;;0.17
40047;BMP280;31510;48.122;11.576;2023-03-01T07:14:53;96012.66;;;0.24
40047;BMP280;31510;48.122;11.576;2023-03-01T07:17:19;96000.28;;;0.24
40047;BMP280;31510;48.122;11.576;2023-03-01T07:19:44;95994.63;;;0.19
40047;BMP280;31510;48.122;11.576;2023-03-01T07:22:10;95988.66;;;0.22
40047;BMP280;31510;48.122;11.576;2023-03-01T07:24:35;95989.06;;;0.24
40047;BMP280;31510;48.122;11.576;2023-03-01T07:27:00;95993.63;;;0.34
40047;BMP280;31510;48.122;11.576;2023-03-01T07:29:26;95993.25;;;0.38
40047;BMP280;31510;48.122;11.576;2023-03-01T07:31:51;95988.00;;;0.35
40047;BMP280;31510;48.122;11.576;2023-03-01T07:34:16;95989.78;;;0.24
40047;BMP280;31510;48.122;11.576;2023-03-01T07:36:41;95983.75;;;0.17
40047;BMP280;31510;48.122;11.576;2023-03-01T07:39:09;95992.41;;;0.21
40047;BMP280;31510;48.122;11.576;2023-03-01T07:41:35;95980.44;;;0.23
40047;BMP280;31510;48.122;11.576;2023-03-01T07:44:00;95986.44;;;0.24
40047;BMP280;31510;48.122;11.576;2023-03-01T07:46:25;95977.03;;;0.23
40047;BMP280;31510;48.122;11.576;2023-03-01T07:48:50;95980.84;;;0.29
40047;BMP280;31510;48.122;11.576;2023-03-01T07:51:16;95985.38;;;0.35
40047;BMP280;31510;48.122;11.576;2023-03-01T07:53:41;95980.13;;;0.35
40047;BMP280;31510;48.122;11.576;2023-03-01T07:56:09;95973.75;;;0.36
40047;BMP280;31510;48.122;11.576;2023-03-01T07:58:36;95983.88;;;0.34
40047;BMP280;31510;48.122;11.576;2023-03-01T08:01:03;95970.38;;;0.32
40047;BMP280;31510;48.122;11.576;2023-03-01T08:03:28;95977.88;;;0.34
40047;BMP280;31510;48.122;11.576;2023-03-01T08:05:54;95982.00;;;0.35
40047;BMP280;31510;48.122;11.576;2023-03-01T08:08:19;95985.38;;;0.38
40047;BMP280;31510;48.122;11.576;2023-03-01T08:10:44;95977.91;;;0.37
40047;BMP280;31510;48.122;11.576;2023-03-01T08:13:11;95971.13;;;0.33
40047;BMP280;31510;48.122;11.576;2023-03-01T08:15:36;95969.25;;;0.33
40047;BMP280;31510;48.122;11.576;2023-03-01T08:18:01;95969.63;;;0.35
40047;BMP280;31510;48.122;11.576;2023-03-01T08:20:27;95974.50;;;0.37
40047;BMP280;31510;48.122;11.576;2023-03-01T08:22:52;95972.66;;;0.37
40047;BMP280;31510;48.122;11.576;2023-03-01T08:25:17;95974.91;;;0.38
40047;BMP280;31510;48.122;11.576;2023-03-01T08:27:42;95972.31;;;0.45
40047;BMP280;31510;48.122;11.576;2023-03-01T08:30:08;95968.25;;;0.51
40047;BMP280;31510;48.122;11.576;2023-03-01T08:32:38;95976.88;;;0.55
40047;BMP280;31510;48.122;11.576;2023-03-01T08:35:04;95971.25;;;0.57
40047;BMP280;31510;48.122;11.576;2023-03-01T08:37:29;95975.00;;;0.56
40047;BMP280;31510;48.122;11.576;2023-03-01T08:39:56;95958.91;;;0.61
40047;BMP280;31510;48.122;11.576;2023-03-01T08:42:21;95964.56;;;0.66
40047;BMP280;31510;48.122;11.576;2023-03-01T08:44:46;95951.41;;;0.63
40047;BMP280;31510;48.122;11.576;2023-03-01T08:47:11;95951.41;;;0.63
40047;BMP280;31510;48.122;11.576;2023-03-01T08:49:37;95949.53;;;0.67
40047;BMP280;31510;48.122;11.576;2023-03-01T08:52:02;95947.34;;;0.69
40047;BMP280;31510;48.122;11.576;2023-03-01T08:54:28;95950.72;;;0.73
40047;BMP280;31510;48.122;11.576;2023-03-01T08:56:53;95955.59;;;0.71
40047;BMP280;31510;48.122;11.576;2023-03-01T08:59:19;95951.09;;;0.71
40047;BMP280;31510;48.122;11.576;2023-03-01T09:01:44;95945.09;;;0.74
40047;BMP280;31510;48.122;11.576;2023-03-01T09:04:11;95942.88;;;0.79
40047;BMP280;31510;48.122;11.576;2023-03-01T09:06:37;95937.69;;;0.93
40047;BMP280;31510;48.122;11.576;2023-03-01T09:09:03;95947.81;;;1.02
40047;BMP280;31510;48.122;11.576;2023-03-01T09:11:29;95948.19;;;1.00
40047;BMP280;31510;48.122;11.576;2023-03-01T09:13:55;95949.69;;;1.05
40047;BMP280;31510;48.122;11.576;2023-03-01T09:16:22;95951.59;;;1.04
40047;BMP280;31510;48.122;11.576;2023-03-01T09:18:51;95947.44;;;1.07
40047;BMP280;31510;48.122;11.576;2023-03-01T09:21:18;95941.47;;;1.06
40047;BMP280;31510;48.122;11.576;2023-03-01T09:23:47;95937.72;;;1.11
40047;BMP280;31510;48.122;11.576;2023-03-01T09:26:15;95938.47;;;1.15
40047;BMP280;31510;48.122;11.576;2023-03-01T09:28:48;95929.47;;;1.19
40047;BMP280;31510;48.122;11.576;2023-03-01T09:31:15;95941.50;;;1.23
40047;BMP280;31510;48.122;11.576;2023-03-01T09:33:42;95941.13;;;1.21
40047;BMP280;31510;48.122;11.576;2023-03-01T09:36:11;95938.13;;;1.19
40047;BMP280;31510;48.122;11.576;2023-03-01T09:38:36;95937.00;;;1.24
40047;BMP280;31510;48.122;11.576;2023-03-01T09:41:02;95936.97;;;1.17
40047;BMP280;31510;48.122;11.576;2023-03-01T09:43:49;95940.75;;;1.23
40047;BMP280;31510;48.122;11.576;2023-03-01T09:46:20;95934.00;;;1.22
40047;BMP280;31510;48.122;11.576;2023-03-01T09:49:18;95926.50;;;1.27
40047;BMP280;31510;48.122;11.576;2023-03-01T09:51:54;95929.50;;;1.40
40047;BMP280;31510;48.122;11.576;2023-03-01T09:54:20;95926.16;;;1.50
40047;BMP280;31510;48.122;11.576;2023-03-01T09:56:53;95936.69;;;1.57
40047;BMP280;31510;48.122;11.576;2023-03-01T09:59:28;95933.69;;;1.58
40047;BMP280;31510;48.122;11.576;2023-03-01T10:02:03;95930.66;;;1.59
40047;BMP280;31510;48.122;11.576;2023-03-01T10:04:47;95930.28;;;1.51
40047;BMP280;31510;48.122;11.576;2023-03-01T10:07:22;95937.03;;;1.48
40047;BMP280;31510;48.122;11.576;2023-03-01T10:09:52;95926.91;;;1.50
40047;BMP280;31510;48.122;11.576;2023-03-01T10:12:20;95920.13;;;1.56
40047;BMP280;31510;48.122;11.576;2023-03-01T10:15:02;95928.81;;;1.60
40047;BMP280;31510;48.122;11.576;2023-03-01T10:17:36;95922.41;;;1.58
40047;BMP280;31510;48.122;11.576;2023-03-01T10:20:41;95926.16;;;1.50
40047;BMP280;31510;48.122;11.576;2023-03-01T10:23:08;95922.78;;;1.42
40047;BMP280;31510;48.122;11.576;2023-03-01T10:28:31;95910.00;;;1.41
40047;BMP280;31510;48.122;11.576;2023-03-01T10:30:56;95924.63;;;1.42
40047;BMP280;31510;48.122;11.576;2023-03-01T10:33:27;95914.91;;;1.42
40047;BMP280;31510;48.122;11.576;2023-03-01T10:35:54;95917.91;;;1.41
40047;BMP280;31510;48.122;11.576;2023-03-01T10:38:19;95923.53;;;1.46
40047;BMP280;31510;48.122;11.576;2023-03-01T10:40:57;95917.50;;;1.56
40047;BMP280;31510;48.122;11.576;2023-03-01T10:43:40;95899.50;;;1.68
40047;BMP280;31510;48.122;11.576;2023-03-01T10:46:29;95904.38;;;1.84
40047;BMP280;31510;48.122;11.576;2023-03-01T10:51:44;95893.09;;;1.94
40047;BMP280;31510;48.122;11.576;2023-03-01T10:54:25;95885.22;;;1.87
40047;BMP280;31510;48.122;11.576;2023-03-01T10:56:54;95887.09;;;1.90
40047;BMP280;31510;48.122;11.576;2023-03-01T10:59:41;95879.59;;;1.95
40047;BMP280;31510;48.122;11.576;2023-03-01T11:02:16;95876.19;;;1.95
40047;BMP280;31510;48.122;11.576;2023-03-01T11:07:28;95858.13;;;1.97
40047;BMP280;31510;48.122;11.576;2023-03-01T11:09:53;95849.50;;;1.99
40047;BMP280;31510;48.122;11.576;2023-03-01T11:12:20;95852.13;;;2.03
40047;BMP280;31510;48.122;11.576;2023-03-01T11:14:48;95838.59;;;2.04
40047;BMP280;31510;48.122;11.576;2023-03-01T11:17:28;95826.91;;;2.12
40047;BMP280;31510;48.122;11.576;2023-03-01T11:22:43;95816.72;;;2.25
40047;BMP280;31510;48.122;11.576;2023-03-01T11:25:13;95817.88;;;2.24
40047;BMP280;31510;48.122;11.576;2023-03-01T11:27:42;95819.75;;;2.27
40047;BMP280;31510;48.122;11.576;2023-03-01T11:30:49;95818.22;;;2.33
40047;BMP280;31510;48.122;11.576;2023-03-01T11:33:46;95809.13;;;2.40
40047;BMP280;31510;48.122;11.576;2023-03-01T11:38:47;95809.03;;;2.65
40047;BMP280;31510;48.122;11.576;2023-03-01T11:41:16;95804.13;;;2.67
40047;BMP280;31510;48.122;11.576;2023-03-01T11:43:55;95790.59;;;2.68
40047;BMP280;31510;48.122;11.576;2023-03-01T11:46:43;95788.63;;;2.79
40047;BMP280;31510;48.122;11.576;2023-03-01T12:00:19;95789.19;;;3.07
40047;BMP280;31510;48.122;11.576;2023-03-01T12:06:12;95784.94;;;3.23
40047;BMP280;31510;48.122;11.576;2023-03-01T12:14:17;95767.13;;;3.38
40047;BMP280;31510;48.122;11.576;2023-03-01T12:28:21;95750.88;;;3.46
40047;BMP280;31510;48.122;11.576;2023-03-01T12:31:08;95745.53;;;3.53
40047;BMP280;31510;48.122;11.576;2023-03-01T12:36:27;95745.00;;;3.65
40047;BMP280;31510;48.122;11.576;2023-03-01T12:39:09;95732.97;;;3.64
40047;BMP280;31510;48.122;11.576;2023-03-01T12:47:10;95730.16;;;3.81
40047;BMP280;31510;48.122;11.576;2023-03-01T12:49:45;95727.50;;;3.85
40047;BMP280;31510;48.122;11.576;2023-03-01T12:55:00;95735.94;;;4.02
40047;BMP280;31510;48.122;11.576;2023-03-01T12:57:41;95723.41;;;4.10
40047;BMP280;31510;48.122;11.576;2023-03-01T13:00:28;95727.56;;;4.11
40047;BMP280;31510;48.122;11.576;2023-03-01T13:03:09;95721.88;;;4.12
40047;BMP280;31510;48.122;11.576;2023-03-01T13:08:49;95719.91;;;4.20
40047;BMP280;31510;48.122;11.576;2023-03-01T13:11:20;95719.44;;;4.25
40047;BMP280;31510;48.122;11.576;2023-03-01T13:13:46;95718.31;;;4.26
40047;BMP280;31510;48.122;11.576;2023-03-01T13:19:06;95724.19;;;4.36
40047;BMP280;31510;48.122;11.576;2023-03-01T13:21:31;95726.41;;;4.41
40047;BMP280;31510;48.122;11.576;2023-03-01T13:23:57;95733.50;;;4.48
40047;BMP280;31510;48.122;11.576;2023-03-01T13:26:22;95723.31;;;4.46
40047;BMP280;31510;48.122;11.576;2023-03-01T13:28:52;95724.81;;;4.47
40047;BMP280;31510;48.122;11.576;2023-03-01T13:33:48;95715.81;;;4.45
40047;BMP280;31510;48.122;11.576;2023-03-01T13:41:51;95699.47;;;4.53
40047;BMP280;31510;48.122;11.576;2023-03-01T13:46:49;95710.66;;;4.61
40047;BMP280;31510;48.122;11.576;2023-03-01T13:49:23;95712.09;;;4.65
40047;BMP280;31510;48.122;11.576;2023-03-01T13:51:50;95703.78;;;4.67
40047;BMP280;31510;48.122;11.576;2023-03-01T13:54:24;95701.91;;;4.67
40047;BMP280;31510;48.122;11.576;2023-03-01T13:56:50;95688.28;;;4.69
40047;BMP280;31510;48.122;11.576;2023-03-01T13:59:20;95687.50;;;4.72
40047;BMP280;31510;48.122;11.576;2023-03-01T14:01:57;95684.44;;;4.73
40047;BMP280;31510;48.122;11.576;2023-03-01T14:04:32;95688.59;;;4.74
40047;BMP280;31510;48.122;11.576;2023-03-01T14:09:39;95682.09;;;4.78
40047;BMP280;31510;48.122;11.576;2023-03-01T14:17:49;95680.09;;;4.86
40047;BMP280;31510;48.122;11.576;2023-03-01T14:20:46;95670.34;;;4.83
40047;BMP280;31510;48.122;11.576;2023-03-01T14:23:19;95676.72;;;4.85
40047;BMP280;31510;48.122;11.576;2023-03-01T14:25:53;95666.47;;;4.87
40047;BMP280;31510;48.122;11.576;2023-03-01T14:28:28;95661.88;;;4.91
40047;BMP280;31510;48.122;11.576;2023-03-01T14:30:56;95654.28;;;4.93
40047;BMP280;31510;48.122;11.576;2023-03-01T14:35:57;95656.44;;;5.02
40047;BMP280;31510;48.122;11.576;2023-03-01T14:38:28;95646.56;;;5.06
40047;BMP280;31510;48.122;11.576;2023-03-01T14:40:57;95641.63;;;5.08
40047;BMP280;31510;48.122;11.576;2023-03-01T14:43:24;95650.97;;;5.12
40047;BMP280;31510;48.122;11.576;2023-03-01T14:45:51;95649.44;;;5.15
40047;BMP280;31510;48.122;11.576;2023-03-01T14:48:17;95645.22;;;5.17
40047;BMP280;31510;48.122;11.576;2023-03-01T14:50:44;95642.91;;;5.19
40047;BMP280;31510;48.122;11.576;2023-03-01T14:53:22;95639.88;;;5.20
40047;BMP280;31510;48.122;11.576;2023-03-01T14:55:51;95647.41;;;5.22
40047;BMP280;31510;48.122;11.576;2023-03-01T14:58:20;95647.34;;;5.25
40047;BMP280;31510;48.122;11.576;2023-03-01T15:00:58;95634.13;;;5.25
40047;BMP280;31510;48.122;11.576;2023-03-01T15:03:38;95633.72;;;5.27
40047;BMP280;31510;48.122;11.576;2023-03-01T15:06:07;95636.31;;;5.30
40047;BMP280;31510;48.122;11.576;2023-03-01T15:08:33;95635.06;;;5.35
40047;BMP280;31510;48.122;11.576;2023-03-01T15:11:25;95643.34;;;5.37
40047;BMP280;31510;48.122;11.576;2023-03-01T15:13:50;95631.22;;;5.39
40047;BMP280;31510;48.122;11.576;2023-03-01T15:18:48;95634.56;;;5.43
40047;BMP280;31510;48.122;11.576;2023-03-01T15:21:25;95633.75;;;5.46
40047;BMP280;31510;48.122;11.576;2023-03-01T15:23:54;95636.72;;;5.48
40047;BMP280;31510;48.122;11.576;2023-03-01T15:26:27;95639.72;;;5.50
40047;BMP280;31510;48.122;11.576;2023-03-01T15:28:55;95638.91;;;5.53
40047;BMP280;31510;48.122;11.576;2023-03-01T15:31:28;95635.44;;;5.56
40047;BMP280;31510;48.122;11.576;2023-03-01T15:34:21;95635.75;;;5.58
40047;BMP280;31510;48.122;11.576;2023-03-01T15:36:48;95631.59;;;5.60
40047;BMP280;31510;48.122;11.576;2023-03-01T15:39:30;95629.66;;;5.61
40047;BMP280;31510;48.122;11.576;2023-03-01T15:41:56;95633.47;;;5.60
40047;BMP280;31510;48.122;11.576;2023-03-01T15:44:30;95633.81;;;5.62
40047;BMP280;31510;48.122;11.576;2023-03-01T15:46:56;95627.03;;;5.61
40047;BMP280;31510;48.122;11.576;2023-03-01T15:49:32;95630.00;;;5.63
40047;BMP280;31510;48.122;11.576;2023-03-01T15:51:58;95628.09;;;5.63
40047;BMP280;31510;48.122;11.576;2023-03-01T15:54:25;95639.03;;;5.65
40047;BMP280;31510;48.122;11.576;2023-03-01T15:56:51;95624.97;;;5.68
40047;BMP280;31510;48.122;11.576;2023-03-01T15:59:17;95625.75;;;5.69